Time;durP1;ratioP1;P1;durP2;ratioP2;P2;SDS_P1;SDS_P2;PMS_P1;PMS_P2;Temp;Humidity;BMP_temperature;BMP_pressure;BME280_temperature;BME280_humidity;BME280_pressure;Samples;Min_cycle;Max_cycle;Signal;HPM_P1;HPM_P2
2023/03/13 00:01:56;;;;;;;4.37;3.97;;;4.80;58.60;;;4.61;45.67;95184.63;5080794;28;20485;-57
2023/03/13 00:04:24;;;;;;;4.70;4.30;;;4.80;58.60;;;4.61;45.17;95183.81;5074742;28;20442;-57
2023/03/13 00:06:51;;;;;;;4.30;3.93;;;4.80;58.60;;;4.59;45.29;95186.50;5068593;28;20466;-56
2023/03/13 00:09:19;;;;;;;7.70;4.33;;;4.80;58.60;;;4.59;45.20;95186.50;5080720;28;20445;-57
2023/03/13 00:11:48;;;;;;;4.13;3.83;;;4.80;58.90;;;4.60;44.95;95187.31;5076583;28;20497;-56
2023/03/13 00:14:15;;;;;;;6.20;4.50;;;4.70;58.70;;;4.58;45.16;95195.22;5065869;28;20466;-57
2023/03/13 00:16:42;;;;;;;4.80;4.23;;;4.70;58.80;;;4.57;45.50;95190.97;5075983;28;20473;-58
2023/03/13 00:19:09;;;;;;;5.90;4.80;;;4.70;58.50;;;4.55;45.27;95199.81;5069563;28;20457;-57
2023/03/13 00:21:37;;;;;;;3.90;3.60;;;4.70;58.50;;;4.52;45.24;95198.22;5067904;28;20474;-57
2023/03/13 00:24:05;;;;;;;6.17;4.47;;;4.70;58.50;;;4.47;45.18;95198.50;5070318;28;20450;-57
2023/03/13 00:26:32;;;;;;;6.30;4.80;;;4.70;58.60;;;4.46;45.30;95202.06;5076788;28;20518;-57
2023/03/13 00:29:00;;;;;;;6.40;4.50;;;4.60;59.40;;;4.46;45.36;95206.41;5068837;28;20454;-57
2023/03/13 00:31:29;;;;;;;4.73;4.27;;;4.60;58.90;;;4.44;45.13;95206.50;5067445;28;20538;-57
2023/03/13 00:33:59;;;;;;;5.17;4.07;;;4.60;58.80;;;4.42;45.54;95199.75;5073024;28;20462;-56
2023/03/13 00:36:27;;;;;;;5.13;4.20;;;4.60;58.80;;;4.40;45.46;95205.03;5072784;28;20548;-57
2023/03/13 00:38:57;;;;;;;4.13;3.80;;;4.60;58.90;;;4.38;45.42;95200.84;5067239;28;20463;-56
2023/03/13 00:41:25;;;;;;;4.97;4.47;;;4.50;58.80;;;4.35;45.55;95203.63;5076866;28;20450;-56
2023/03/13 00:43:52;;;;;;;6.93;4.10;;;4.50;58.80;;;4.34;45.40;95199.34;5060397;28;20463;-55
2023/03/13 00:46:22;;;;;;;5.03;4.07;;;4.50;58.80;;;4.34;45.45;95202.81;5059967;28;20462;-58
2023/03/13 00:48:49;;;;;;;4.57;4.20;;;4.50;58.80;;;4.35;45.48;95203.63;5069460;28;20886;-56
2023/03/13 00:51:17;;;;;;;4.90;3.90;;;4.50;58.80;;;4.36;45.42;95200.13;5073908;28;20451;-56
2023/03/13 00:53:46;;;;;;;4.97;4.37;;;4.50;58.80;;;4.35;45.27;95198.44;5065579;28;20964;-56
2023/03/13 00:56:14;;;;;;;7.17;4.10;;;4.50;58.80;;;4.34;45.33;95191.53;5066544;28;20450;-57
2023/03/13 00:58:43;;;;;;;4.00;3.20;;;4.50;58.80;;;4.34;45.20;95196.75;5070487;28;20481;-56
2023/03/13 01:01:11;;;;;;;3.40;3.20;;;4.50;58.80;;;4.33;45.09;95195.91;5068857;28;20458;-58
2023/03/13 01:03:40;;;;;;;4.40;4.00;;;4.50;58.80;;;4.35;45.51;95199.25;5061761;28;20453;-57
2023/03/13 01:06:09;;;;;;;4.57;4.20;;;4.50;58.80;;;4.36;45.33;95194.91;5065803;28;20531;-57
2023/03/13 01:08:36;;;;;;;6.90;4.30;;;4.50;58.80;;;4.34;45.28;95192.41;5072444;28;20520;-59
2023/03/13 01:11:05;;;;;;;4.30;3.97;;;4.50;58.80;;;4.33;45.42;95189.88;5054740;28;20948;-57
2023/03/13 01:13:33;;;;;;;4.40;3.30;;;4.50;58.80;;;4.35;45.34;95193.22;5078653;28;20494;-56
2023/03/13 01:16:03;;;;;;;3.50;3.20;;;4.50;58.80;;;4.35;45.33;95190.63;5060615;28;20459;-57
2023/03/13 01:18:30;;;;;;;5.30;3.90;;;4.50;58.80;;;4.35;45.63;95183.63;5061924;28;20459;-57
2023/03/13 01:20:59;;;;;;;4.70;4.20;;;4.50;58.80;;;4.34;45.28;95189.78;5068887;28;21313;-57
2023/03/13 01:23:26;;;;;;;3.77;3.43;;;4.50;58.80;;;4.34;45.50;95191.53;5072397;28;20508;-56
2023/03/13 01:25:54;;;;;;;5.57;3.93;;;4.50;58.80;;;4.33;45.57;95192.50;5067713;28;20602;-57
2023/03/13 01:28:22;;;;;;;4.17;3.70;;;4.50;59.00;;;4.30;45.79;95204.75;5073188;28;20557;-56
2023/03/13 01:30:49;;;;;;;4.53;4.03;;;4.50;58.90;;;4.28;45.59;95204.00;5074043;28;20841;-57
2023/03/13 01:33:16;;;;;;;5.57;4.20;;;4.50;59.00;;;4.27;45.29;95209.31;5069146;28;20859;-56
2023/03/13 01:35:44;;;;;;;3.73;3.43;;;4.50;59.10;;;4.24;45.43;95210.31;5067240;28;20890;-57
2023/03/13 01:38:12;;;;;;;5.03;3.97;;;4.40;59.10;;;4.24;45.77;95207.72;5074882;28;20824;-55
2023/03/13 01:40:41;;;;;;;6.77;4.97;;;4.40;59.20;;;4.22;45.86;95209.59;5069311;28;20495;-56
2023/03/13 01:43:19;;;;;;;5.10;3.80;;;4.40;59.10;;;4.21;45.52;95205.31;5066006;28;20604;-57
2023/03/13 01:45:57;;;;;;;5.70;3.73;;;4.40;59.20;;;4.21;45.57;95201.88;5074674;28;20450;-55
2023/03/13 01:48:29;;;;;;;4.57;4.17;;;4.40;59.30;;;4.20;45.57;95205.41;5067486;28;20474;-55
2023/03/13 01:50:56;;;;;;;5.60;4.00;;;4.40;59.40;;;4.18;45.95;95208.09;5062500;28;20450;-57
2023/03/13 01:53:25;;;;;;;4.90;3.77;;;4.30;59.30;;;4.17;45.78;95214.25;5075635;28;20490;-57
2023/03/13 01:55:53;;;;;;;5.67;3.70;;;4.40;59.40;;;4.14;45.74;95206.63;5075204;28;20472;-56
2023/03/13 01:58:20;;;;;;;4.90;4.03;;;4.30;59.30;;;4.12;45.79;95211.91;5062449;28;21305;-56
2023/03/13 02:00:47;;;;;;;4.43;4.13;;;4.30;59.30;;;4.10;45.95;95210.31;5079054;28;20539;-57
2023/03/13 02:03:17;;;;;;;4.30;4.00;;;4.30;59.20;;;4.08;45.99;95196.56;5074600;28;21118;-58
2023/03/13 02:05:44;;;;;;;4.40;4.00;;;4.30;59.30;;;4.07;46.14;95197.50;5070113;28;20461;-57
2023/03/13 02:08:14;;;;;;;7.10;4.80;;;4.20;59.30;;;4.07;45.88;95210.50;5069594;28;21075;-55
2023/03/13 02:10:48;;;;;;;4.13;3.70;;;4.20;59.40;;;4.08;45.75;95214.81;5065230;28;20454;-56
2023/03/13 02:13:16;;;;;;;6.00;4.00;;;4.20;59.40;;;4.08;45.53;95222.59;5069297;28;20540;-58
2023/03/13 02:15:43;;;;;;;5.83;4.10;;;4.20;59.40;;;4.05;45.77;95223.63;5064039;28;20538;-56
2023/03/13 02:18:11;;;;;;;5.13;3.97;;;4.20;59.40;;;4.05;45.98;95228.00;5074015;28;21019;-57
2023/03/13 02:20:39;;;;;;;4.83;4.37;;;4.20;59.40;;;4.03;45.49;95240.25;5072914;28;20457;-57
2023/03/13 02:23:10;;;;;;;4.23;3.70;;;4.20;59.50;;;3.99;45.92;95229.19;5065945;28;21042;-57
2023/03/13 02:25:42;;;;;;;6.77;4.40;;;4.20;59.40;;;3.98;45.75;95235.31;5074818;28;20451;-56
2023/03/13 02:28:12;;;;;;;8.17;4.60;;;4.20;59.60;;;3.95;45.85;95238.94;5072601;28;20513;-56
2023/03/13 02:30:39;;;;;;;7.40;4.10;;;4.10;59.50;;;3.95;46.26;95238.13;5064391;28;20467;-55
2023/03/13 02:33:06;;;;;;;6.17;4.73;;;4.10;59.80;;;3.92;46.14;95254.75;5071900;28;20490;-54
2023/03/13 02:35:33;;;;;;;5.43;4.93;;;4.10;59.80;;;3.87;45.85;95256.78;5071245;28;20467;-56
2023/03/13 02:38:03;;;;;;;5.67;4.43;;;4.10;59.90;;;3.82;46.58;95253.59;5065297;28;20635;-56
2023/03/13 02:40:32;;;;;;;12.10;5.43;;;4.00;60.10;;;3.76;46.43;95259.16;5058584;28;20451;-56
2023/03/13 02:43:02;;;;;;;5.17;4.50;;;4.00;60.50;;;3.68;46.77;95262.19;5070820;28;20525;-58
2023/03/13 02:45:29;;;;;;;9.47;5.90;;;3.90;60.60;;;3.63;46.99;95272.03;5072262;28;20461;-55
2023/03/13 02:47:56;;;;;;;11.47;6.60;;;3.80;60.90;;;3.56;47.38;95276.75;5073675;28;20477;-56
2023/03/13 02:50:24;;;;;;;17.63;6.50;;;3.80;61.10;;;3.48;47.70;95276.34;5076055;28;21028;-57
2023/03/13 02:52:53;;;;;;;9.23;5.80;;;3.70;62.00;;;3.36;48.01;95271.81;5070297;28;20494;-57
2023/03/13 02:55:24;;;;;;;10.90;6.03;;;3.60;61.90;;;3.32;47.46;95273.78;5068100;28;20484;-57
2023/03/13 02:57:52;;;;;;;9.80;5.90;;;3.60;62.00;;;3.27;47.06;95282.72;5076531;28;20867;-56
2023/03/13 03:00:25;;;;;;;10.57;5.80;;;3.50;61.90;;;3.22;47.44;95278.66;5074159;28;20828;-56
2023/03/13 03:02:54;;;;;;;12.70;5.60;;;3.40;62.30;;;3.17;47.55;95288.44;5069128;28;20478;-56
2023/03/13 03:05:21;;;;;;;5.57;4.40;;;3.40;62.60;;;3.14;47.60;95283.41;5081974;28;20905;-57
2023/03/13 03:07:48;;;;;;;5.43;4.10;;;3.40;62.80;;;3.11;48.74;95286.19;5075527;28;20573;-57
2023/03/13 03:10:16;;;;;;;6.87;4.50;;;3.30;63.00;;;3.07;48.56;95292.50;5070409;28;20470;-55
2023/03/13 03:12:43;;;;;;;6.53;4.90;;;3.30;63.20;;;3.05;47.79;95302.09;5071265;28;20498;-58
2023/03/13 03:15:11;;;;;;;5.63;4.67;;;3.30;63.30;;;3.01;48.50;95298.03;5080585;28;20453;-55
2023/03/13 03:17:40;;;;;;;7.77;5.13;;;3.20;63.40;;;2.98;47.84;95311.19;5069330;28;20891;-57
2023/03/13 03:20:10;;;;;;;7.00;5.20;;;3.20;63.40;;;2.93;48.75;95320.97;5077062;28;20450;-57
2023/03/13 03:22:39;;;;;;;8.33;4.53;;;3.20;63.70;;;2.88;48.40;95323.81;5072688;28;20495;-56
2023/03/13 03:25:07;;;;;;;6.93;4.83;;;3.10;63.60;;;2.84;49.03;95332.69;5067584;28;20466;-56
2023/03/13 03:27:36;;;;;;;7.50;5.57;;;3.10;64.30;;;2.80;49.22;95320.78;5067831;28;20886;-55
2023/03/13 03:30:04;;;;;;;8.40;5.13;;;3.00;64.20;;;2.74;49.23;95316.75;5078293;28;20490;-56
2023/03/13 03:32:31;;;;;;;5.30;4.30;;;3.00;64.20;;;2.75;48.36;95318.44;5072072;28;20539;-56
2023/03/13 03:35:00;;;;;;;9.63;4.80;;;3.00;64.40;;;2.74;49.41;95315.91;5069555;28;20463;-56
2023/03/13 03:37:27;;;;;;;4.83;4.27;;;3.00;64.60;;;2.74;49.16;95318.50;5073903;28;20475;-58
2023/03/13 03:39:54;;;;;;;5.67;4.47;;;3.00;64.80;;;2.73;48.88;95330.66;5069475;28;20459;-56
2023/03/13 03:42:21;;;;;;;4.77;4.33;;;3.00;65.10;;;2.74;48.89;95347.91;5063872;28;20483;-56
2023/03/13 03:44:49;;;;;;;6.57;4.70;;;3.00;65.50;;;2.71;48.84;95348.06;5071821;28;20457;-55
2023/03/13 03:47:16;;;;;;;5.83;5.17;;;3.00;65.60;;;2.69;49.84;95355.13;5077565;28;20790;-56
2023/03/13 03:49:43;;;;;;;8.00;5.43;;;2.90;65.50;;;2.67;49.08;95356.97;5071472;28;20455;-56
2023/03/13 03:52:12;;;;;;;4.83;4.30;;;2.90;65.30;;;2.67;48.93;95356.97;5073284;28;20476;-55
2023/03/13 03:54:39;;;;;;;6.90;5.90;;;2.90;65.50;;;2.66;49.91;95363.88;5079037;28;21359;-55
2023/03/13 03:57:06;;;;;;;5.77;4.67;;;2.90;65.50;;;2.65;49.46;95363.97;5072005;28;20532;-57
2023/03/13 03:59:33;;;;;;;9.63;5.80;;;2.90;65.90;;;2.64;49.08;95357.13;5068979;28;20840;-57
2023/03/13 04:02:01;;;;;;;7.60;5.13;;;2.90;65.90;;;2.64;50.12;95363.16;5079237;28;21097;-55
2023/03/13 04:04:28;;;;;;;4.97;4.53;;;2.90;66.40;;;2.64;49.22;95372.69;5074431;28;20454;-58
2023/03/13 04:06:55;;;;;;;8.37;6.67;;;2.90;66.20;;;2.64;50.37;95381.31;5064198;28;20467;-58
2023/03/13 04:09:24;;;;;;;27.60;18.43;;;2.90;66.60;;;2.63;49.84;95373.59;5079395;28;20447;-56
2023/03/13 04:11:51;;;;;;;32.73;22.20;;;2.90;66.90;;;2.62;49.96;95385.75;5076921;28;20467;-57
2023/03/13 04:14:18;;;;;;;14.10;10.97;;;2.80;66.60;;;2.59;50.32;95387.69;5071745;28;20491;-56
2023/03/13 04:16:46;;;;;;;14.80;11.27;;;2.80;66.60;;;2.58;49.88;95393.78;5067922;28;20475;-55
2023/03/13 04:19:13;;;;;;;36.40;28.40;;;2.80;67.20;;;2.53;50.72;95385.41;5075905;28;20478;-57
2023/03/13 04:21:40;;;;;;;15.07;10.67;;;2.80;67.30;;;2.51;50.11;95377.69;5073264;28;20487;-57
2023/03/13 04:24:08;;;;;;;8.27;7.20;;;2.80;67.60;;;2.50;50.21;95396.78;5067836;28;20463;-56
2023/03/13 04:26:37;;;;;;;8.93;6.10;;;2.80;67.50;;;2.48;49.71;95396.84;5078511;28;21074;-56
2023/03/13 04:29:06;;;;;;;7.63;6.20;;;2.70;67.70;;;2.45;50.01;95394.41;5070444;28;20951;-57
2023/03/13 04:31:33;;;;;;;8.93;6.30;;;2.70;67.40;;;2.46;49.97;95395.25;5063904;28;21083;-55
2023/03/13 04:34:00;;;;;;;10.27;6.43;;;2.70;67.70;;;2.46;49.65;95406.47;5073743;28;21026;-57
2023/03/13 04:36:27;;;;;;;11.23;6.73;;;2.70;67.80;;;2.47;50.53;95422.91;5072382;28;20483;-57
2023/03/13 04:38:55;;;;;;;7.90;6.50;;;2.70;68.00;;;2.47;50.44;95422.91;5068155;28;20563;-57
2023/03/13 04:41:22;;;;;;;10.10;6.97;;;2.70;68.30;;;2.47;50.23;95425.50;5070183;28;20463;-57
2023/03/13 04:43:50;;;;;;;8.30;5.67;;;2.70;68.40;;;2.49;50.84;95427.09;5071748;28;20524;-57
2023/03/13 04:46:18;;;;;;;12.03;6.43;;;2.70;68.80;;;2.51;51.15;95438.25;5067446;28;20451;-57
2023/03/13 04:48:45;;;;;;;9.13;6.83;;;2.70;68.90;;;2.53;50.88;95432.16;5067254;28;21097;-56
2023/03/13 04:51:12;;;;;;;11.23;6.93;;;2.80;69.30;;;2.56;50.64;95438.00;5074070;28;20447;-57
2023/03/13 04:53:40;;;;;;;10.67;5.73;;;2.80;68.90;;;2.57;50.10;95438.84;5067209;28;21035;-57
2023/03/13 04:56:07;;;;;;;6.43;5.70;;;2.80;68.90;;;2.60;50.36;95438.69;5070798;28;20868;-57
2023/03/13 04:58:35;;;;;;;9.93;7.13;;;2.80;69.50;;;2.62;50.65;95442.06;5076631;28;20454;-57
2023/03/13 05:01:04;;;;;;;17.67;7.50;;;2.80;69.10;;;2.63;51.06;95443.72;5059187;28;20454;-57
2023/03/13 05:03:31;;;;;;;18.43;7.40;;;2.90;69.50;;;2.63;50.73;95430.75;5065630;28;20957;-56
2023/03/13 05:05:58;;;;;;;12.07;7.00;;;2.90;69.80;;;2.62;50.99;95435.09;5077210;28;20979;-58
2023/03/13 05:08:26;;;;;;;13.83;7.80;;;2.90;69.70;;;2.64;50.34;95433.25;5074294;28;20558;-57
2023/03/13 05:10:53;;;;;;;8.70;7.17;;;2.90;69.70;;;2.68;51.15;95449.50;5057193;28;20458;-57
2023/03/13 05:13:20;;;;;;;11.87;7.33;;;2.90;69.80;;;2.74;50.12;95445.78;5070039;28;20501;-57
2023/03/13 05:15:48;;;;;;;10.30;7.30;;;2.90;69.80;;;2.76;50.63;95450.00;5070604;28;20475;-57
2023/03/13 05:18:16;;;;;;;16.70;7.20;;;3.00;69.90;;;2.78;51.41;95461.13;5062306;28;20554;-56
2023/03/13 05:20:43;;;;;;;9.13;7.20;;;3.00;69.90;;;2.80;50.86;95461.06;5067446;28;20837;-56
2023/03/13 05:23:11;;;;;;;16.27;9.13;;;3.00;69.80;;;2.85;50.47;95470.31;5075570;28;20482;-57
2023/03/13 05:25:38;;;;;;;11.23;8.27;;;3.10;70.00;;;2.93;50.08;95469.06;5058111;28;20861;-56
2023/03/13 05:28:05;;;;;;;11.50;8.20;;;3.10;70.00;;;2.96;50.98;95467.16;5071590;28;20478;-56
2023/03/13 05:30:32;;;;;;;13.00;8.60;;;3.20;70.20;;;2.98;50.97;95467.06;5072289;28;20959;-57
2023/03/13 05:33:00;;;;;;;18.93;8.10;;;3.20;70.10;;;2.98;50.56;95465.31;5058515;28;20955;-56
2023/03/13 05:35:28;;;;;;;11.37;7.70;;;3.20;70.10;;;3.00;50.70;95473.03;5055583;28;20839;-56
2023/03/13 05:37:56;;;;;;;12.47;9.17;;;3.20;70.10;;;3.05;50.61;95471.03;5079263;28;20485;-56
2023/03/13 05:40:23;;;;;;;10.57;8.57;;;3.30;70.20;;;3.10;49.94;95471.63;5065608;28;20467;-57
2023/03/13 05:42:50;;;;;;;17.60;9.73;;;3.30;70.20;;;3.16;50.46;95478.25;5067810;28;20483;-57
2023/03/13 05:45:18;;;;;;;9.87;8.30;;;3.30;70.20;;;3.18;50.87;95487.66;5075471;28;20462;-56
2023/03/13 05:47:45;;;;;;;25.30;8.93;;;3.30;70.20;;;3.21;50.14;95482.31;5061249;28;20479;-56
2023/03/13 05:50:12;;;;;;;15.50;9.70;;;3.40;69.90;;;3.25;50.21;95492.56;5064076;28;20463;-57
2023/03/13 05:52:41;;;;;;;18.23;8.90;;;3.50;70.20;;;3.25;50.18;95482.16;5066771;28;20478;-57
2023/03/13 05:55:09;;;;;;;14.57;8.53;;;3.50;69.80;;;3.26;50.27;95484.66;5072567;28;20512;-57
2023/03/13 05:57:36;;;;;;;10.93;8.77;;;3.50;70.00;;;3.29;50.43;95494.09;5059831;28;20478;-57
2023/03/13 06:00:05;;;;;;;13.27;9.93;;;3.50;70.00;;;3.33;50.16;95498.19;5067397;28;20454;-57
2023/03/13 06:02:32;;;;;;;19.20;9.30;;;3.50;70.30;;;3.40;50.47;95502.16;5069406;28;20478;-58
2023/03/13 06:04:59;;;;;;;19.43;9.50;;;3.60;70.50;;;3.50;50.06;95505.97;5058318;28;20981;-56
2023/03/13 06:07:26;;;;;;;25.93;14.37;;;3.60;70.10;;;3.64;49.96;95499.16;5060040;28;20475;-57
2023/03/13 06:09:55;;;;;;;35.40;16.87;;;3.70;69.80;;;3.82;49.70;95503.38;5075039;28;20843;-56
2023/03/13 06:12:22;;;;;;;37.80;19.53;;;3.90;69.70;;;3.99;49.37;95496.41;5073416;28;20469;-55
2023/03/13 06:14:49;;;;;;;45.93;22.10;;;4.10;69.50;;;4.18;49.24;95498.84;5056959;28;20609;-57
2023/03/13 06:17:17;;;;;;;43.30;21.27;;;4.30;69.30;;;4.37;49.05;95507.31;5074423;28;20470;-57
2023/03/13 06:19:44;;;;;;;33.67;18.53;;;4.40;69.30;;;4.61;49.09;95497.25;5061811;28;20939;-57
2023/03/13 06:22:11;;;;;;;35.17;17.43;;;4.70;68.80;;;4.86;47.94;95501.03;5063117;28;20539;-55
2023/03/13 06:24:38;;;;;;;37.60;15.87;;;4.90;67.80;;;5.09;47.85;95494.47;5065492;28;20562;-56
2023/03/13 06:27:07;;;;;;;32.73;15.70;;;5.10;67.40;;;5.34;47.72;95493.84;5074300;28;20663;-56
2023/03/13 06:29:35;;;;;;;28.43;16.00;;;5.40;67.10;;;5.58;47.03;95488.09;5056472;28;20455;-55
2023/03/13 06:32:02;;;;;;;26.87;15.40;;;5.60;66.40;;;5.83;46.75;95476.97;5063816;28;20487;-56
2023/03/13 06:34:29;;;;;;;24.20;13.97;;;5.80;65.90;;;6.04;46.45;95472.19;5073294;28;20540;-57
2023/03/13 06:36:57;;;;;;;26.77;13.90;;;6.10;64.90;;;6.24;45.98;95473.53;5062958;28;21103;-56
2023/03/13 06:39:24;;;;;;;20.73;11.67;;;6.30;64.60;;;6.50;48.58;95491.06;5053861;28;20547;-57
2023/03/13 06:41:52;;;;;;;21.63;10.30;;;6.50;68.50;;;6.80;48.07;95493.44;5069232;28;20475;-57
2023/03/13 06:44:21;;;;;;;19.30;12.27;;;6.80;70.00;;;7.17;47.47;95491.00;5071742;28;20458;-56
2023/03/13 06:46:48;;;;;;;26.80;13.57;;;7.10;68.80;;;7.54;46.68;95498.94;5057179;28;21026;-55
2023/03/13 06:49:15;;;;;;;27.90;13.50;;;7.40;67.20;;;7.91;46.09;95491.16;5075158;28;20454;-55
2023/03/13 06:51:42;;;;;;;20.80;12.77;;;7.80;66.50;;;8.23;45.48;95483.63;5066352;28;20519;-55
2023/03/13 06:54:09;;;;;;;17.67;11.70;;;8.20;65.90;;;8.60;45.12;95477.53;5070481;28;20646;-55
2023/03/13 06:56:37;;;;;;;15.93;9.93;;;8.50;65.00;;;8.99;44.12;95487.81;5072302;28;20839;-58
2023/03/13 06:59:04;;;;;;;10.33;7.40;;;8.80;63.00;;;9.36;44.03;95485.00;5073306;28;20888;-56
2023/03/13 07:01:33;;;;;;;14.50;9.27;;;9.20;62.30;;;9.67;42.40;95479.06;5071862;28;20845;-55
2023/03/13 07:04:00;;;;;;;9.77;6.20;;;9.50;59.70;;;9.87;40.28;95482.78;5066823;28;20469;-60
2023/03/13 07:06:27;;;;;;;20.33;6.60;;;9.80;56.40;;;10.13;39.80;95481.66;5079649;28;20515;-57
2023/03/13 07:08:54;;;;;;;4.90;4.27;;;10.00;55.20;;;10.44;41.25;95485.34;5072034;28;20950;-55
2023/03/13 07:11:22;;;;;;;8.10;5.93;;;10.30;57.10;;;10.63;40.41;95489.09;5067201;28;20461;-58
2023/03/13 07:13:49;;;;;;;12.33;5.03;;;10.50;55.90;;;10.80;39.70;95487.72;5078644;28;21029;-58
2023/03/13 07:16:16;;;;;;;7.60;5.63;;;10.70;54.90;;;11.09;37.75;95473.00;5074654;28;20450;-56
2023/03/13 07:18:45;;;;;;;8.57;5.67;;;10.90;52.50;;;11.41;37.64;95469.44;5068869;28;20451;-57
2023/03/13 07:21:13;;;;;;;5.70;5.10;;;11.20;51.50;;;11.74;37.34;95482.50;5076521;28;20450;-57
2023/03/13 07:23:40;;;;;;;7.00;5.47;;;11.50;51.80;;;12.12;38.75;95473.13;5071429;28;20463;-56
2023/03/13 07:26:10;;;;;;;7.20;5.10;;;11.80;53.90;;;12.36;38.39;95468.31;5070764;28;20455;-58
2023/03/13 07:28:37;;;;;;;12.20;5.50;;;12.10;53.40;;;12.64;38.77;95460.59;5070163;28;20462;-57
2023/03/13 07:31:06;;;;;;;5.47;4.97;;;12.40;53.70;;;12.94;38.09;95466.69;5072796;28;20962;-55
2023/03/13 07:33:33;;;;;;;5.17;4.53;;;12.70;53.60;;;13.16;37.95;95470.84;5072060;28;20822;-58
2023/03/13 07:36:02;;;;;;;6.33;5.70;;;12.90;52.40;;;13.48;37.38;95466.22;5071585;28;21010;-58
2023/03/13 07:38:29;;;;;;;6.43;5.80;;;13.20;52.50;;;13.89;35.37;95461.50;5073378;28;20896;-62
2023/03/13 07:40:57;;;;;;;11.83;6.00;;;13.60;49.80;;;14.29;34.13;95469.09;5076446;28;20447;-58
2023/03/13 07:43:24;;;;;;;5.53;5.00;;;14.00;47.90;;;14.66;34.54;95478.78;5071580;28;20475;-57
2023/03/13 07:45:54;;;;;;;9.43;6.40;;;14.50;48.00;;;15.08;36.99;95473.91;5084275;28;20457;-58
2023/03/13 07:48:21;;;;;;;9.47;7.10;;;14.90;51.60;;;15.45;34.11;95470.22;5073558;28;20475;-57
2023/03/13 07:50:49;;;;;;;6.97;6.27;;;15.40;47.50;;;15.74;35.75;95472.56;5067878;28;20460;-57
2023/03/13 07:53:20;;;;;;;14.00;6.03;;;15.80;49.90;;;16.04;33.92;95463.28;5080746;28;20867;-56
2023/03/13 07:55:58;;;;;;;10.13;6.70;;;16.20;47.10;;;16.35;33.21;95457.41;5079085;28;20526;-57
2023/03/13 07:58:25;;;;;;;8.73;6.40;;;16.50;46.30;;;16.58;34.85;95462.16;5068811;28;20467;-58
2023/03/13 08:00:52;;;;;;;11.50;6.93;;;16.80;48.50;;;16.69;33.30;95453.84;5074553;28;20504;-58
2023/03/13 08:03:20;;;;;;;6.27;5.77;;;17.00;46.20;;;16.91;33.23;95462.22;5078434;28;20525;-57
2023/03/13 08:05:47;;;;;;;6.50;5.80;;;17.20;46.10;;;17.14;32.47;95457.09;5073759;28;20467;-58
2023/03/13 08:08:14;;;;;;;24.93;6.23;;;17.30;43.70;;;17.35;32.40;95453.91;5074417;28;20473;-58
2023/03/13 08:10:43;;;;;;;8.47;6.23;;;17.50;44.40;;;17.51;32.86;95448.59;5081090;28;20485;-56
2023/03/13 08:13:11;;;;;;;8.97;6.47;;;17.70;45.70;;;17.63;31.55;95450.88;5073238;28;20497;-57
2023/03/13 08:15:38;;;;;;;8.10;5.50;;;17.80;42.80;;;17.72;30.82;95452.53;5068615;28;20540;-58
2023/03/13 08:18:06;;;;;;;7.63;5.43;;;17.90;42.40;;;17.74;30.96;95455.88;5080245;28;20474;-58
2023/03/13 08:20:33;;;;;;;5.83;5.30;;;17.90;41.90;;;17.75;28.44;95460.19;5074831;28;20479;-59
2023/03/13 08:23:00;;;;;;;9.40;6.10;;;17.90;40.00;;;17.62;29.15;95457.22;5067782;28;20471;-56
2023/03/13 08:25:27;;;;;;;10.10;6.40;;;17.80;39.90;;;17.55;27.98;95460.56;5079423;28;21161;-58
2023/03/13 08:27:56;;;;;;;9.77;5.43;;;17.70;38.50;;;17.49;30.19;95458.56;5078096;28;20946;-57
2023/03/13 08:30:24;;;;;;;7.03;5.47;;;17.60;40.60;;;17.56;30.04;95456.88;5072521;28;20466;-58
2023/03/13 08:32:51;;;;;;;5.03;4.63;;;17.60;40.90;;;17.67;28.13;95462.88;5076355;28;20546;-59
2023/03/13 08:35:18;;;;;;;12.60;5.17;;;17.70;39.00;;;17.64;29.43;95460.53;5076258;28;20502;-56
2023/03/13 08:37:45;;;;;;;5.20;4.80;;;17.70;39.40;;;17.63;28.85;95450.88;5073379;28;20550;-56
2023/03/13 08:40:13;;;;;;;6.73;4.87;;;17.70;39.60;;;17.68;28.82;95459.22;5066286;28;20451;-56
2023/03/13 08:42:41;;;;;;;6.00;4.40;;;17.60;39.70;;;17.71;28.52;95453.56;5080717;28;20478;-56
2023/03/13 08:45:10;;;;;;;5.47;4.23;;;17.60;39.30;;;17.78;27.38;95457.19;5074866;28;20454;-60
2023/03/13 08:47:38;;;;;;;6.33;5.73;;;17.60;38.00;;;17.74;27.43;95454.03;5068956;28;20863;-57
2023/03/13 08:50:06;;;;;;;6.07;5.43;;;17.60;38.20;;;17.67;26.58;95453.03;5078102;28;20515;-57
2023/03/13 08:52:33;;;;;;;7.73;5.77;;;17.50;37.70;;;17.55;28.29;95447.25;5073398;28;21280;-59
2023/03/13 08:55:00;;;;;;;7.80;5.50;;;17.40;38.80;;;17.61;29.53;95445.75;5070476;28;20521;-57
2023/03/13 08:57:28;;;;;;;11.10;5.60;;;17.40;40.50;;;17.72;29.35;95444.56;5074619;28;20478;-56
2023/03/13 08:59:55;;;;;;;5.80;5.10;;;17.40;40.30;;;17.80;27.99;95455.19;5077517;28;20523;-57
2023/03/13 09:02:24;;;;;;;8.10;6.03;;;17.50;38.00;;;17.87;28.23;95453.50;5069630;28;20474;-59
2023/03/13 09:04:51;;;;;;;5.87;5.30;;;17.60;38.40;;;18.00;28.56;95446.84;5074910;28;20457;-58
2023/03/13 09:07:18;;;;;;;6.27;5.50;;;17.70;39.00;;;18.14;27.97;95446.13;5077038;28;20466;-59
2023/03/13 09:09:45;;;;;;;12.33;5.70;;;17.80;38.40;;;18.19;26.41;95448.28;5073121;28;20989;-58
2023/03/13 09:12:13;;;;;;;12.33;4.97;;;17.90;36.90;;;18.16;26.84;95441.47;5067420;28;20469;-58
2023/03/13 09:14:40;;;;;;;11.13;5.23;;;17.90;37.50;;;18.20;28.06;95441.94;5079217;28;20489;-57
2023/03/13 09:17:07;;;;;;;7.83;5.73;;;17.90;38.70;;;18.27;26.72;95443.72;5073338;28;20475;-54
2023/03/13 09:19:36;;;;;;;7.17;6.40;;;18.00;37.20;;;18.25;27.23;95444.94;5068897;28;20454;-57
2023/03/13 09:22:03;;;;;;;8.23;6.47;;;18.00;37.20;;;18.23;26.87;95442.44;5075415;28;20459;-57
2023/03/13 09:24:30;;;;;;;8.50;5.20;;;18.00;37.60;;;18.22;26.22;95440.78;5075357;28;20950;-58
2023/03/13 09:26:58;;;;;;;7.37;6.50;;;17.90;36.90;;;18.05;26.82;95444.50;5069480;28;20677;-57
2023/03/13 09:29:25;;;;;;;7.07;6.33;;;17.90;36.80;;;17.95;27.65;95441.22;5074763;28;20446;-57
2023/03/13 09:31:52;;;;;;;7.47;6.20;;;17.80;37.40;;;17.96;27.11;95445.53;5075390;28;20481;-57
2023/03/13 09:34:22;;;;;;;7.70;6.60;;;17.70;37.50;;;18.03;27.21;95436.69;5069703;28;20521;-57
2023/03/13 09:36:50;;;;;;;6.47;5.97;;;17.80;37.60;;;18.03;25.95;95443.84;5076335;28;20459;-56
2023/03/13 09:39:18;;;;;;;6.73;6.00;;;17.80;36.10;;;17.95;26.45;95433.22;5075901;28;20525;-57
2023/03/13 09:41:50;;;;;;;9.80;6.97;;;17.70;36.50;;;17.84;27.78;95429.06;5071396;28;20494;-57
2023/03/13 09:44:19;;;;;;;9.07;7.00;;;17.70;37.90;;;17.81;28.38;95419.59;5069744;28;20438;-56
2023/03/13 09:46:56;;;;;;;7.83;6.80;;;17.60;39.10;;;17.84;28.64;95421.91;5076821;28;20544;-57
2023/03/13 09:49:30;;;;;;;7.10;6.50;;;17.60;39.10;;;17.93;28.59;95414.75;5072863;28;21000;-57
2023/03/13 09:52:07;;;;;;;18.10;5.93;;;17.70;39.80;;;18.03;28.08;95422.53;5063500;28;20471;-57
2023/03/13 09:54:37;;;;;;;7.63;5.70;;;17.80;39.50;;;18.09;28.52;95425.34;5077436;28;20497;-56
2023/03/13 09:57:10;;;;;;;8.80;6.13;;;17.80;39.50;;;18.12;28.59;95428.66;5067422;28;20486;-56
2023/03/13 09:59:45;;;;;;;8.93;6.37;;;17.90;39.10;;;18.11;27.33;95414.53;5066932;28;21208;-56
2023/03/13 10:02:24;;;;;;;10.00;7.07;;;17.90;37.80;;;17.96;26.94;95413.59;5078344;28;20467;-58
2023/03/13 10:04:55;;;;;;;8.73;6.87;;;17.80;37.00;;;17.75;26.86;95406.97;5074479;28;20446;-57
2023/03/13 10:07:24;;;;;;;6.87;6.30;;;17.60;37.00;;;17.59;27.91;95420.31;5066480;28;20482;-56
2023/03/13 10:09:52;;;;;;;6.40;5.80;;;17.50;38.30;;;17.56;28.51;95405.53;5078481;28;20454;-57
2023/03/13 10:12:20;;;;;;;11.43;6.37;;;17.40;38.90;;;17.62;28.04;95410.16;5073814;28;20569;-56
2023/03/13 10:15:05;;;;;;;4.90;4.60;;;17.40;38.70;;;17.66;28.42;95397.34;5069742;28;20866;-59
2023/03/13 10:17:34;;;;;;;9.97;6.07;;;17.40;39.60;;;17.67;28.74;95388.38;5076728;28;20461;-58
2023/03/13 10:20:08;;;;;;;9.60;6.07;;;17.50;39.40;;;17.68;28.30;95385.53;5075678;28;20461;-57
2023/03/13 10:22:37;;;;;;;6.50;5.43;;;17.50;38.70;;;17.64;28.49;95375.41;5061987;28;20475;-56
2023/03/13 10:25:08;;;;;;;7.13;5.60;;;17.50;39.30;;;17.56;28.68;95371.75;5072342;28;20446;-58
2023/03/13 10:27:44;;;;;;;5.33;4.83;;;17.40;39.10;;;17.49;28.49;95368.16;5076098;28;20478;-57
2023/03/13 10:30:20;;;;;;;6.00;5.43;;;17.30;38.60;;;17.45;29.08;95373.97;5068550;28;20457;-55